sensor_id;sensor_type;location;lat;lon;timestamp;temperature;humidity
64855;DHT22;51321;50.428;8.378;2022-08-27T00:01:16;21.40;97.50
64855;DHT22;51321;50.428;8.378;2022-08-27T00:03:38;21.40;97.40
64855;DHT22;51321;50.428;8.378;2022-08-27T00:06:00;21.50;97.20
64855;DHT22;51321;50.428;8.378;2022-08-27T00:08:21;21.40;97.40
64855;DHT22;51321;50.428;8.378;2022-08-27T00:10:45;21.40;97.40
64855;DHT22;51321;50.428;8.378;2022-08-27T00:13:07;21.40;97.40
64855;DHT22;51321;50.428;8.378;2022-08-27T00:15:29;21.30;97.50
64855;DHT22;51321;50.428;8.378;2022-08-27T00:17:51;21.40;97.40
64855;DHT22;51321;50.428;8.378;2022-08-27T00:20:16;21.40;97.30
64855;DHT22;51321;50.428;8.378;2022-08-27T00:22:38;21.40;97.40
64855;DHT22;51321;50.428;8.378;2022-08-27T00:25:00;21.50;97.30
64855;DHT22;51321;50.428;8.378;2022-08-27T00:27:23;21.50;97.30
64855;DHT22;51321;50.428;8.378;2022-08-27T00:29:45;21.40;97.40
64855;DHT22;51321;50.428;8.378;2022-08-27T00:32:07;21.40;97.50
64855;DHT22;51321;50.428;8.378;2022-08-27T00:34:29;21.40;97.50
64855;DHT22;51321;50.428;8.378;2022-08-27T00:36:52;21.40;97.70
64855;DHT22;51321;50.428;8.378;2022-08-27T00:39:14;21.30;97.70
64855;DHT22;51321;50.428;8.378;2022-08-27T00:41:36;21.30;97.70
64855;DHT22;51321;50.428;8.378;2022-08-27T00:44:00;21.40;97.70
64855;DHT22;51321;50.428;8.378;2022-08-27T00:46:25;21.30;97.70
64855;DHT22;51321;50.428;8.378;2022-08-27T00:48:48;21.30;97.90
64855;DHT22;51321;50.428;8.378;2022-08-27T00:51:11;21.30;97.90
64855;DHT22;51321;50.428;8.378;2022-08-27T00:53:34;21.30;97.60
64855;DHT22;51321;50.428;8.378;2022-08-27T00:55:57;21.30;97.80
64855;DHT22;51321;50.428;8.378;2022-08-27T00:58:25;21.20;97.90
64855;DHT22;51321;50.428;8.378;2022-08-27T01:00:49;21.30;97.80
64855;DHT22;51321;50.428;8.378;2022-08-27T01:03:11;21.20;97.90
64855;DHT22;51321;50.428;8.378;2022-08-27T01:05:34;21.20;97.80
64855;DHT22;51321;50.428;8.378;2022-08-27T01:08:02;21.20;98.10
64855;DHT22;51321;50.428;8.378;2022-08-27T01:10:26;21.10;98.30
64855;DHT22;51321;50.428;8.378;2022-08-27T01:12:49;21.10;98.40
64855;DHT22;51321;50.428;8.378;2022-08-27T01:15:15;21.00;98.60
64855;DHT22;51321;50.428;8.378;2022-08-27T01:17:39;21.10;98.30
64855;DHT22;51321;50.428;8.378;2022-08-27T01:20:05;21.10;98.30
64855;DHT22;51321;50.428;8.378;2022-08-27T01:22:33;21.10;98.30
64855;DHT22;51321;50.428;8.378;2022-08-27T01:25:00;21.10;98.20
64855;DHT22;51321;50.428;8.378;2022-08-27T01:27:26;21.20;98.30
64855;DHT22;51321;50.428;8.378;2022-08-27T01:29:48;21.20;98.20
64855;DHT22;51321;50.428;8.378;2022-08-27T01:32:12;21.20;98.10
64855;DHT22;51321;50.428;8.378;2022-08-27T01:34:34;21.20;98.30
64855;DHT22;51321;50.428;8.378;2022-08-27T01:36:56;21.20;98.20
64855;DHT22;51321;50.428;8.378;2022-08-27T01:39:18;21.10;98.40
64855;DHT22;51321;50.428;8.378;2022-08-27T01:41:41;21.00;98.60
64855;DHT22;51321;50.428;8.378;2022-08-27T01:44:03;21.00;98.60
64855;DHT22;51321;50.428;8.378;2022-08-27T01:46:25;21.10;98.60
64855;DHT22;51321;50.428;8.378;2022-08-27T01:48:47;21.10;98.40
64855;DHT22;51321;50.428;8.378;2022-08-27T01:51:09;21.10;98.60
64855;DHT22;51321;50.428;8.378;2022-08-27T01:53:31;21.10;98.60
64855;DHT22;51321;50.428;8.378;2022-08-27T01:55:53;21.10;98.50
64855;DHT22;51321;50.428;8.378;2022-08-27T01:58:17;21.10;98.50
64855;DHT22;51321;50.428;8.378;2022-08-27T02:00:43;21.10;98.60
64855;DHT22;51321;50.428;8.378;2022-08-27T02:03:07;21.00;98.60
64855;DHT22;51321;50.428;8.378;2022-08-27T02:05:29;21.00;98.80
64855;DHT22;51321;50.428;8.378;2022-08-27T02:07:51;20.90;98.90
64855;DHT22;51321;50.428;8.378;2022-08-27T02:10:17;20.80;99.10
64855;DHT22;51321;50.428;8.378;2022-08-27T02:12:39;20.70;99.20
64855;DHT22;51321;50.428;8.378;2022-08-27T02:15:02;20.70;99.40
64855;DHT22;51321;50.428;8.378;2022-08-27T02:17:24;20.70;99.20
64855;DHT22;51321;50.428;8.378;2022-08-27T02:19:46;20.60;99.30
64855;DHT22;51321;50.428;8.378;2022-08-27T02:22:08;20.50;99.50
64855;DHT22;51321;50.428;8.378;2022-08-27T02:24:30;20.50;99.60
64855;DHT22;51321;50.428;8.378;2022-08-27T02:26:52;20.60;99.50
64855;DHT22;51321;50.428;8.378;2022-08-27T02:29:14;20.60;99.50
64855;DHT22;51321;50.428;8.378;2022-08-27T02:31:37;20.60;99.50
64855;DHT22;51321;50.428;8.378;2022-08-27T02:34:01;20.60;99.40
64855;DHT22;51321;50.428;8.378;2022-08-27T02:36:23;20.70;99.40
64855;DHT22;51321;50.428;8.378;2022-08-27T02:38:45;20.60;99.70
64855;DHT22;51321;50.428;8.378;2022-08-27T02:41:07;20.50;99.80
64855;DHT22;51321;50.428;8.378;2022-08-27T02:43:29;20.50;99.90
64855;DHT22;51321;50.428;8.378;2022-08-27T02:45:51;20.50;99.90
64855;DHT22;51321;50.428;8.378;2022-08-27T02:48:14;20.50;99.90
64855;DHT22;51321;50.428;8.378;2022-08-27T02:50:36;20.40;99.90
64855;DHT22;51321;50.428;8.378;2022-08-27T02:52:59;20.40;99.90
64855;DHT22;51321;50.428;8.378;2022-08-27T02:55:21;20.30;99.90
64855;DHT22;51321;50.428;8.378;2022-08-27T02:57:43;20.30;99.90
64855;DHT22;51321;50.428;8.378;2022-08-27T03:00:08;20.20;99.90
64855;DHT22;51321;50.428;8.378;2022-08-27T03:02:31;20.20;99.90
64855;DHT22;51321;50.428;8.378;2022-08-27T03:04:54;20.20;99.90
64855;DHT22;51321;50.428;8.378;2022-08-27T03:07:16;20.20;99.90
64855;DHT22;51321;50.428;8.378;2022-08-27T03:09:38;20.10;99.90
64855;DHT22;51321;50.428;8.378;2022-08-27T03:12:01;20.10;99.90
64855;DHT22;51321;50.428;8.378;2022-08-27T03:14:22;20.00;99.90
64855;DHT22;51321;50.428;8.378;2022-08-27T03:16:44;20.00;99.90
64855;DHT22;51321;50.428;8.378;2022-08-27T03:19:06;19.90;99.90
64855;DHT22;51321;50.428;8.378;2022-08-27T03:21:29;19.90;99.90
64855;DHT22;51321;50.428;8.378;2022-08-27T03:23:52;20.00;99.90
64855;DHT22;51321;50.428;8.378;2022-08-27T03:26:14;19.90;99.90
64855;DHT22;51321;50.428;8.378;2022-08-27T03:28:37;20.00;99.90
64855;DHT22;51321;50.428;8.378;2022-08-27T03:31:01;19.90;99.90
64855;DHT22;51321;50.428;8.378;2022-08-27T03:33:23;19.90;99.90
64855;DHT22;51321;50.428;8.378;2022-08-27T03:35:45;19.90;99.90
64855;DHT22;51321;50.428;8.378;2022-08-27T03:38:08;19.90;99.90
64855;DHT22;51321;50.428;8.378;2022-08-27T03:40:31;20.00;99.90
64855;DHT22;51321;50.428;8.378;2022-08-27T03:42:52;20.00;99.90
64855;DHT22;51321;50.428;8.378;2022-08-27T03:45:14;20.10;99.90
64855;DHT22;51321;50.428;8.378;2022-08-27T03:47:36;20.20;99.90
64855;DHT22;51321;50.428;8.378;2022-08-27T03:49:59;20.40;99.90
64855;DHT22;51321;50.428;8.378;2022-08-27T03:52:20;20.50;99.90
64855;DHT22;51321;50.428;8.378;2022-08-27T03:54:44;20.50;99.90
64855;DHT22;51321;50.428;8.378;2022-08-27T03:57:06;20.50;99.90
64855;DHT22;51321;50.428;8.378;2022-08-27T03:59:29;20.50;99.80
64855;DHT22;51321;50.428;8.378;2022-08-27T04:01:51;20.50;99.70
64855;DHT22;51321;50.428;8.378;2022-08-27T04:04:13;20.50;99.80
64855;DHT22;51321;50.428;8.378;2022-08-27T04:06:35;20.60;99.60
64855;DHT22;51321;50.428;8.378;2022-08-27T04:08:57;20.60;99.60
64855;DHT22;51321;50.428;8.378;2022-08-27T04:11:20;20.40;99.90
64855;DHT22;51321;50.428;8.378;2022-08-27T04:13:42;20.60;99.80
64855;DHT22;51321;50.428;8.378;2022-08-27T04:16:05;20.60;99.60
64855;DHT22;51321;50.428;8.378;2022-08-27T04:18:27;20.50;99.80
64855;DHT22;51321;50.428;8.378;2022-08-27T04:20:50;20.60;99.60
64855;DHT22;51321;50.428;8.378;2022-08-27T04:23:13;20.60;99.60
64855;DHT22;51321;50.428;8.378;2022-08-27T04:25:38;20.60;99.80
64855;DHT22;51321;50.428;8.378;2022-08-27T04:28:02;20.50;99.90
64855;DHT22;51321;50.428;8.378;2022-08-27T04:30:24;20.50;99.90
64855;DHT22;51321;50.428;8.378;2022-08-27T04:32:46;20.40;99.90
64855;DHT22;51321;50.428;8.378;2022-08-27T04:35:08;20.40;99.90
64855;DHT22;51321;50.428;8.378;2022-08-27T04:37:31;20.40;99.90
64855;DHT22;51321;50.428;8.378;2022-08-27T04:39:54;20.40;99.90
64855;DHT22;51321;50.428;8.378;2022-08-27T04:42:16;20.30;99.90
64855;DHT22;51321;50.428;8.378;2022-08-27T04:44:40;20.40;99.90
64855;DHT22;51321;50.428;8.378;2022-08-27T04:47:03;20.50;99.90
64855;DHT22;51321;50.428;8.378;2022-08-27T04:49:27;20.40;99.90
64855;DHT22;51321;50.428;8.378;2022-08-27T04:51:49;20.40;99.90
64855;DHT22;51321;50.428;8.378;2022-08-27T04:54:12;20.40;99.90
64855;DHT22;51321;50.428;8.378;2022-08-27T04:56:34;20.40;99.90
64855;DHT22;51321;50.428;8.378;2022-08-27T04:58:56;20.50;99.90
64855;DHT22;51321;50.428;8.378;2022-08-27T05:01:21;20.60;99.70
64855;DHT22;51321;50.428;8.378;2022-08-27T05:03:44;20.60;99.60
64855;DHT22;51321;50.428;8.378;2022-08-27T05:06:06;20.60;99.60
64855;DHT22;51321;50.428;8.378;2022-08-27T05:08:28;20.50;99.70
64855;DHT22;51321;50.428;8.378;2022-08-27T05:10:50;20.40;99.80
64855;DHT22;51321;50.428;8.378;2022-08-27T05:13:12;20.40;99.90
64855;DHT22;51321;50.428;8.378;2022-08-27T05:15:35;20.50;99.90
64855;DHT22;51321;50.428;8.378;2022-08-27T05:17:58;20.40;99.90
64855;DHT22;51321;50.428;8.378;2022-08-27T05:20:20;20.40;99.90
64855;DHT22;51321;50.428;8.378;2022-08-27T05:22:43;20.40;99.90
64855;DHT22;51321;50.428;8.378;2022-08-27T05:25:07;20.50;99.90
64855;DHT22;51321;50.428;8.378;2022-08-27T05:27:30;20.50;99.80
64855;DHT22;51321;50.428;8.378;2022-08-27T05:29:52;20.50;99.90
64855;DHT22;51321;50.428;8.378;2022-08-27T05:32:15;20.50;99.80
64855;DHT22;51321;50.428;8.378;2022-08-27T05:34:38;20.70;99.40
64855;DHT22;51321;50.428;8.378;2022-08-27T05:37:00;20.80;99.30
64855;DHT22;51321;50.428;8.378;2022-08-27T05:39:22;20.80;99.20
64855;DHT22;51321;50.428;8.378;2022-08-27T05:41:44;20.80;99.20
64855;DHT22;51321;50.428;8.378;2022-08-27T05:44:07;20.70;99.30
64855;DHT22;51321;50.428;8.378;2022-08-27T05:46:29;20.60;99.20
64855;DHT22;51321;50.428;8.378;2022-08-27T05:48:54;20.60;99.40
64855;DHT22;51321;50.428;8.378;2022-08-27T05:51:19;20.60;99.40
64855;DHT22;51321;50.428;8.378;2022-08-27T05:53:41;20.60;99.30
64855;DHT22;51321;50.428;8.378;2022-08-27T05:56:03;20.60;99.40
64855;DHT22;51321;50.428;8.378;2022-08-27T05:58:25;20.60;99.50
64855;DHT22;51321;50.428;8.378;2022-08-27T06:01:05;20.60;99.20
64855;DHT22;51321;50.428;8.378;2022-08-27T06:03:27;20.60;99.20
64855;DHT22;51321;50.428;8.378;2022-08-27T06:05:49;20.60;99.40
64855;DHT22;51321;50.428;8.378;2022-08-27T06:08:22;20.60;99.50
64855;DHT22;51321;50.428;8.378;2022-08-27T06:10:43;20.70;99.50
64855;DHT22;51321;50.428;8.378;2022-08-27T06:13:06;20.70;99.60
64855;DHT22;51321;50.428;8.378;2022-08-27T06:15:28;20.70;99.60
64855;DHT22;51321;50.428;8.378;2022-08-27T06:17:51;20.60;99.80
64855;DHT22;51321;50.428;8.378;2022-08-27T06:20:13;20.70;99.80
64855;DHT22;51321;50.428;8.378;2022-08-27T06:22:34;20.60;99.90
64855;DHT22;51321;50.428;8.378;2022-08-27T06:24:58;20.60;99.90
64855;DHT22;51321;50.428;8.378;2022-08-27T06:27:20;20.70;99.90
64855;DHT22;51321;50.428;8.378;2022-08-27T06:29:42;20.80;99.80
64855;DHT22;51321;50.428;8.378;2022-08-27T06:32:04;20.90;99.20
64855;DHT22;51321;50.428;8.378;2022-08-27T06:34:26;20.70;99.60
64855;DHT22;51321;50.428;8.378;2022-08-27T06:36:48;20.70;99.60
64855;DHT22;51321;50.428;8.378;2022-08-27T06:39:10;20.70;99.60
64855;DHT22;51321;50.428;8.378;2022-08-27T06:41:36;20.70;99.80
64855;DHT22;51321;50.428;8.378;2022-08-27T06:44:04;20.70;99.70
64855;DHT22;51321;50.428;8.378;2022-08-27T06:46:27;20.90;99.70
64855;DHT22;51321;50.428;8.378;2022-08-27T06:48:50;20.90;99.90
64855;DHT22;51321;50.428;8.378;2022-08-27T06:51:17;21.10;99.50
64855;DHT22;51321;50.428;8.378;2022-08-27T06:53:39;21.10;99.50
64855;DHT22;51321;50.428;8.378;2022-08-27T06:56:02;21.10;99.50
64855;DHT22;51321;50.428;8.378;2022-08-27T06:58:26;21.10;99.60
64855;DHT22;51321;50.428;8.378;2022-08-27T07:00:47;21.10;99.50
64855;DHT22;51321;50.428;8.378;2022-08-27T07:03:10;21.20;99.50
64855;DHT22;51321;50.428;8.378;2022-08-27T07:05:33;21.30;99.00
64855;DHT22;51321;50.428;8.378;2022-08-27T07:07:55;21.30;98.70
64855;DHT22;51321;50.428;8.378;2022-08-27T07:10:17;21.30;98.80
64855;DHT22;51321;50.428;8.378;2022-08-27T07:12:39;21.40;98.90
64855;DHT22;51321;50.428;8.378;2022-08-27T07:15:03;21.40;98.60
64855;DHT22;51321;50.428;8.378;2022-08-27T07:17:25;21.40;98.40
64855;DHT22;51321;50.428;8.378;2022-08-27T07:19:46;21.40;98.50
64855;DHT22;51321;50.428;8.378;2022-08-27T07:22:08;21.40;98.20
64855;DHT22;51321;50.428;8.378;2022-08-27T07:24:30;21.50;97.90
64855;DHT22;51321;50.428;8.378;2022-08-27T07:26:52;21.50;97.80
64855;DHT22;51321;50.428;8.378;2022-08-27T07:29:14;21.50;97.80
64855;DHT22;51321;50.428;8.378;2022-08-27T07:31:38;21.50;97.90
64855;DHT22;51321;50.428;8.378;2022-08-27T07:34:00;21.50;97.60
64855;DHT22;51321;50.428;8.378;2022-08-27T07:36:22;21.60;97.60
64855;DHT22;51321;50.428;8.378;2022-08-27T07:38:44;21.80;97.60
64855;DHT22;51321;50.428;8.378;2022-08-27T07:41:08;21.90;96.90
64855;DHT22;51321;50.428;8.378;2022-08-27T07:43:30;22.10;96.50
64855;DHT22;51321;50.428;8.378;2022-08-27T07:46:10;22.30;96.10
64855;DHT22;51321;50.428;8.378;2022-08-27T07:48:33;22.30;96.00
64855;DHT22;51321;50.428;8.378;2022-08-27T07:50:55;22.60;95.70
64855;DHT22;51321;50.428;8.378;2022-08-27T07:53:18;23.00;95.30
64855;DHT22;51321;50.428;8.378;2022-08-27T07:55:39;23.10;94.80
64855;DHT22;51321;50.428;8.378;2022-08-27T07:58:02;23.10;94.60
64855;DHT22;51321;50.428;8.378;2022-08-27T08:00:25;23.20;94.60
64855;DHT22;51321;50.428;8.378;2022-08-27T08:02:48;23.30;94.20
64855;DHT22;51321;50.428;8.378;2022-08-27T08:05:12;23.30;94.20
64855;DHT22;51321;50.428;8.378;2022-08-27T08:07:34;23.40;94.20
64855;DHT22;51321;50.428;8.378;2022-08-27T08:09:58;23.20;94.10
64855;DHT22;51321;50.428;8.378;2022-08-27T08:12:20;23.40;94.00
64855;DHT22;51321;50.428;8.378;2022-08-27T08:14:41;23.40;93.70
64855;DHT22;51321;50.428;8.378;2022-08-27T08:17:04;23.40;93.70
64855;DHT22;51321;50.428;8.378;2022-08-27T08:19:26;23.40;93.80
64855;DHT22;51321;50.428;8.378;2022-08-27T08:21:49;23.30;93.90
64855;DHT22;51321;50.428;8.378;2022-08-27T08:24:11;23.40;93.90
64855;DHT22;51321;50.428;8.378;2022-08-27T08:26:33;23.40;93.60
64855;DHT22;51321;50.428;8.378;2022-08-27T08:28:55;23.50;93.30
64855;DHT22;51321;50.428;8.378;2022-08-27T08:31:17;23.50;93.50
64855;DHT22;51321;50.428;8.378;2022-08-27T08:33:39;23.40;93.50
64855;DHT22;51321;50.428;8.378;2022-08-27T08:36:03;23.40;93.60
64855;DHT22;51321;50.428;8.378;2022-08-27T08:38:26;23.30;93.70
64855;DHT22;51321;50.428;8.378;2022-08-27T08:40:49;23.30;93.70
64855;DHT22;51321;50.428;8.378;2022-08-27T08:43:24;23.30;93.50
64855;DHT22;51321;50.428;8.378;2022-08-27T08:45:47;23.30;93.80
64855;DHT22;51321;50.428;8.378;2022-08-27T08:48:11;23.30;93.60
64855;DHT22;51321;50.428;8.378;2022-08-27T08:50:43;23.40;93.60
64855;DHT22;51321;50.428;8.378;2022-08-27T08:53:13;23.30;93.50
64855;DHT22;51321;50.428;8.378;2022-08-27T08:55:44;23.30;93.50
64855;DHT22;51321;50.428;8.378;2022-08-27T08:58:15;23.20;93.70
64855;DHT22;51321;50.428;8.378;2022-08-27T09:00:43;23.30;93.50
64855;DHT22;51321;50.428;8.378;2022-08-27T09:03:05;23.20;93.70
64855;DHT22;51321;50.428;8.378;2022-08-27T09:05:27;23.20;93.70
64855;DHT22;51321;50.428;8.378;2022-08-27T09:07:57;23.20;93.80
64855;DHT22;51321;50.428;8.378;2022-08-27T09:10:25;23.20;93.90
64855;DHT22;51321;50.428;8.378;2022-08-27T09:12:50;23.20;93.60
64855;DHT22;51321;50.428;8.378;2022-08-27T09:15:15;23.30;93.80
64855;DHT22;51321;50.428;8.378;2022-08-27T09:17:37;23.30;93.40
64855;DHT22;51321;50.428;8.378;2022-08-27T09:20:02;23.40;93.40
64855;DHT22;51321;50.428;8.378;2022-08-27T09:22:29;23.30;93.50
64855;DHT22;51321;50.428;8.378;2022-08-27T09:25:03;23.40;93.40
64855;DHT22;51321;50.428;8.378;2022-08-27T09:27:28;23.50;93.30
64855;DHT22;51321;50.428;8.378;2022-08-27T09:29:53;23.70;93.10
64855;DHT22;51321;50.428;8.378;2022-08-27T09:32:15;23.60;92.90
64855;DHT22;51321;50.428;8.378;2022-08-27T09:34:41;23.70;92.90
64855;DHT22;51321;50.428;8.378;2022-08-27T09:37:06;23.70;92.90
64855;DHT22;51321;50.428;8.378;2022-08-27T09:39:39;23.60;92.80
64855;DHT22;51321;50.428;8.378;2022-08-27T09:42:03;23.70;93.00
64855;DHT22;51321;50.428;8.378;2022-08-27T09:44:25;23.70;92.70
64855;DHT22;51321;50.428;8.378;2022-08-27T09:46:53;23.70;92.60
64855;DHT22;51321;50.428;8.378;2022-08-27T09:49:16;23.60;92.30
64855;DHT22;51321;50.428;8.378;2022-08-27T09:51:39;23.70;92.40
64855;DHT22;51321;50.428;8.378;2022-08-27T09:54:02;23.50;92.50
64855;DHT22;51321;50.428;8.378;2022-08-27T09:56:28;23.40;92.80
64855;DHT22;51321;50.428;8.378;2022-08-27T09:58:53;23.30;93.10
64855;DHT22;51321;50.428;8.378;2022-08-27T10:01:18;23.20;93.10
64855;DHT22;51321;50.428;8.378;2022-08-27T10:03:41;23.30;93.10
64855;DHT22;51321;50.428;8.378;2022-08-27T10:06:03;23.50;92.70
64855;DHT22;51321;50.428;8.378;2022-08-27T10:08:29;23.60;92.70
64855;DHT22;51321;50.428;8.378;2022-08-27T10:10:57;23.70;92.80
64855;DHT22;51321;50.428;8.378;2022-08-27T10:13:25;23.60;92.30
64855;DHT22;51321;50.428;8.378;2022-08-27T10:16:01;23.40;92.80
64855;DHT22;51321;50.428;8.378;2022-08-27T10:18:35;23.30;92.90
64855;DHT22;51321;50.428;8.378;2022-08-27T10:21:10;23.40;92.90
64855;DHT22;51321;50.428;8.378;2022-08-27T10:23:38;23.50;92.50
64855;DHT22;51321;50.428;8.378;2022-08-27T10:26:07;23.30;92.70
64855;DHT22;51321;50.428;8.378;2022-08-27T10:28:39;23.20;93.20
64855;DHT22;51321;50.428;8.378;2022-08-27T10:31:16;23.10;93.20
64855;DHT22;51321;50.428;8.378;2022-08-27T10:33:47;23.00;93.20
64855;DHT22;51321;50.428;8.378;2022-08-27T10:36:18;23.00;93.40
64855;DHT22;51321;50.428;8.378;2022-08-27T10:38:49;23.00;93.60
64855;DHT22;51321;50.428;8.378;2022-08-27T10:41:16;23.10;93.50
64855;DHT22;51321;50.428;8.378;2022-08-27T10:44:04;23.00;93.50
64855;DHT22;51321;50.428;8.378;2022-08-27T10:46:51;23.00;93.40
64855;DHT22;51321;50.428;8.378;2022-08-27T10:49:23;23.00;93.70
64855;DHT22;51321;50.428;8.378;2022-08-27T10:52:03;22.90;93.40
64855;DHT22;51321;50.428;8.378;2022-08-27T10:54:32;23.10;93.50
64855;DHT22;51321;50.428;8.378;2022-08-27T10:56:59;23.10;93.20
64855;DHT22;51321;50.428;8.378;2022-08-27T10:59:31;23.00;93.80
64855;DHT22;51321;50.428;8.378;2022-08-27T11:01:59;23.00;93.50
64855;DHT22;51321;50.428;8.378;2022-08-27T11:04:30;23.00;93.50
64855;DHT22;51321;50.428;8.378;2022-08-27T11:06:57;22.90;93.40
64855;DHT22;51321;50.428;8.378;2022-08-27T11:09:36;22.90;93.50
64855;DHT22;51321;50.428;8.378;2022-08-27T11:12:02;23.00;93.60
64855;DHT22;51321;50.428;8.378;2022-08-27T11:14:29;22.90;93.50
64855;DHT22;51321;50.428;8.378;2022-08-27T11:16:54;23.00;93.70
64855;DHT22;51321;50.428;8.378;2022-08-27T11:19:24;23.00;93.60
64855;DHT22;51321;50.428;8.378;2022-08-27T11:22:02;23.10;93.50
64855;DHT22;51321;50.428;8.378;2022-08-27T11:24:29;23.10;93.50
64855;DHT22;51321;50.428;8.378;2022-08-27T11:26:57;23.10;93.60
64855;DHT22;51321;50.428;8.378;2022-08-27T11:29:24;23.20;93.30
64855;DHT22;51321;50.428;8.378;2022-08-27T11:31:51;23.20;93.30
64855;DHT22;51321;50.428;8.378;2022-08-27T11:34:18;23.20;93.30
64855;DHT22;51321;50.428;8.378;2022-08-27T11:37:02;23.20;93.00
64855;DHT22;51321;50.428;8.378;2022-08-27T11:39:43;23.30;92.90
64855;DHT22;51321;50.428;8.378;2022-08-27T11:42:14;23.30;93.10
64855;DHT22;51321;50.428;8.378;2022-08-27T11:44:40;23.20;93.00
64855;DHT22;51321;50.428;8.378;2022-08-27T11:47:10;23.30;93.10
64855;DHT22;51321;50.428;8.378;2022-08-27T11:49:40;23.30;93.30
64855;DHT22;51321;50.428;8.378;2022-08-27T11:52:06;23.40;93.10
64855;DHT22;51321;50.428;8.378;2022-08-27T11:54:30;23.50;93.00
64855;DHT22;51321;50.428;8.378;2022-08-27T11:56:52;23.40;92.70
64855;DHT22;51321;50.428;8.378;2022-08-27T11:59:22;23.50;92.60
64855;DHT22;51321;50.428;8.378;2022-08-27T12:01:50;23.50;92.60
64855;DHT22;51321;50.428;8.378;2022-08-27T12:04:32;23.50;92.80
64855;DHT22;51321;50.428;8.378;2022-08-27T12:07:02;23.50;92.80
64855;DHT22;51321;50.428;8.378;2022-08-27T12:09:26;23.60;92.90
64855;DHT22;51321;50.428;8.378;2022-08-27T12:11:58;23.70;92.60
64855;DHT22;51321;50.428;8.378;2022-08-27T12:14:33;24.00;92.40
64855;DHT22;51321;50.428;8.378;2022-08-27T12:17:00;24.10;92.20
64855;DHT22;51321;50.428;8.378;2022-08-27T12:19:32;24.30;91.80
64855;DHT22;51321;50.428;8.378;2022-08-27T12:22:18;24.30;91.90
64855;DHT22;51321;50.428;8.378;2022-08-27T12:24:54;24.60;91.90
64855;DHT22;51321;50.428;8.378;2022-08-27T12:27:27;24.60;91.20
64855;DHT22;51321;50.428;8.378;2022-08-27T12:29:55;24.80;91.00
64855;DHT22;51321;50.428;8.378;2022-08-27T12:32:24;24.80;91.00
64855;DHT22;51321;50.428;8.378;2022-08-27T12:34:48;25.00;90.60
64855;DHT22;51321;50.428;8.378;2022-08-27T12:37:12;25.00;90.70
64855;DHT22;51321;50.428;8.378;2022-08-27T12:39:36;25.20;90.50
64855;DHT22;51321;50.428;8.378;2022-08-27T12:42:00;25.20;90.10
64855;DHT22;51321;50.428;8.378;2022-08-27T12:44:24;25.30;89.80
64855;DHT22;51321;50.428;8.378;2022-08-27T12:46:47;24.90;90.10
64855;DHT22;51321;50.428;8.378;2022-08-27T12:49:10;24.80;90.50
64855;DHT22;51321;50.428;8.378;2022-08-27T12:51:34;24.70;90.60
64855;DHT22;51321;50.428;8.378;2022-08-27T12:54:00;24.70;90.50
64855;DHT22;51321;50.428;8.378;2022-08-27T12:56:47;24.60;90.60
64855;DHT22;51321;50.428;8.378;2022-08-27T12:59:30;24.60;90.70
64855;DHT22;51321;50.428;8.378;2022-08-27T13:02:03;24.70;90.20
64855;DHT22;51321;50.428;8.378;2022-08-27T13:04:29;24.60;90.70
64855;DHT22;51321;50.428;8.378;2022-08-27T13:06:51;24.80;90.30
64855;DHT22;51321;50.428;8.378;2022-08-27T13:09:13;24.80;90.30
64855;DHT22;51321;50.428;8.378;2022-08-27T13:11:45;24.60;90.30
64855;DHT22;51321;50.428;8.378;2022-08-27T13:14:10;24.70;90.50
64855;DHT22;51321;50.428;8.378;2022-08-27T13:16:35;24.80;90.00
64855;DHT22;51321;50.428;8.378;2022-08-27T13:18:58;24.80;89.90
64855;DHT22;51321;50.428;8.378;2022-08-27T13:21:21;24.90;90.00
64855;DHT22;51321;50.428;8.378;2022-08-27T13:23:44;25.00;89.40
64855;DHT22;51321;50.428;8.378;2022-08-27T13:26:08;25.10;88.60
64855;DHT22;51321;50.428;8.378;2022-08-27T13:28:30;25.20;88.70
64855;DHT22;51321;50.428;8.378;2022-08-27T13:30:54;25.20;88.60
64855;DHT22;51321;50.428;8.378;2022-08-27T13:33:21;25.20;88.40
64855;DHT22;51321;50.428;8.378;2022-08-27T13:35:44;25.40;87.60
64855;DHT22;51321;50.428;8.378;2022-08-27T13:38:07;25.10;88.20
64855;DHT22;51321;50.428;8.378;2022-08-27T13:40:31;25.10;88.10
64855;DHT22;51321;50.428;8.378;2022-08-27T13:42:55;25.10;88.80
64855;DHT22;51321;50.428;8.378;2022-08-27T13:45:18;25.20;88.40
64855;DHT22;51321;50.428;8.378;2022-08-27T13:47:42;25.30;88.20
64855;DHT22;51321;50.428;8.378;2022-08-27T13:50:12;25.20;88.50
64855;DHT22;51321;50.428;8.378;2022-08-27T13:52:39;25.00;89.00
64855;DHT22;51321;50.428;8.378;2022-08-27T13:55:21;25.00;89.30
64855;DHT22;51321;50.428;8.378;2022-08-27T13:57:44;25.10;88.80
64855;DHT22;51321;50.428;8.378;2022-08-27T14:00:08;25.30;87.80
64855;DHT22;51321;50.428;8.378;2022-08-27T14:02:31;25.60;86.80
64855;DHT22;51321;50.428;8.378;2022-08-27T14:05:08;25.90;86.50
64855;DHT22;51321;50.428;8.378;2022-08-27T14:07:39;25.70;86.30
64855;DHT22;51321;50.428;8.378;2022-08-27T14:10:05;25.80;86.30
64855;DHT22;51321;50.428;8.378;2022-08-27T14:12:29;25.80;85.70
64855;DHT22;51321;50.428;8.378;2022-08-27T14:14:52;26.00;85.30
64855;DHT22;51321;50.428;8.378;2022-08-27T14:17:20;26.10;85.20
64855;DHT22;51321;50.428;8.378;2022-08-27T14:19:43;26.20;84.50
64855;DHT22;51321;50.428;8.378;2022-08-27T14:22:06;26.50;83.60
64855;DHT22;51321;50.428;8.378;2022-08-27T14:24:28;26.60;83.90
64855;DHT22;51321;50.428;8.378;2022-08-27T14:26:50;26.40;83.90
64855;DHT22;51321;50.428;8.378;2022-08-27T14:29:12;26.40;83.70
64855;DHT22;51321;50.428;8.378;2022-08-27T14:31:34;26.20;84.10
64855;DHT22;51321;50.428;8.378;2022-08-27T14:33:56;26.00;84.50
64855;DHT22;51321;50.428;8.378;2022-08-27T14:36:19;25.70;84.70
64855;DHT22;51321;50.428;8.378;2022-08-27T14:38:45;25.60;85.60
64855;DHT22;51321;50.428;8.378;2022-08-27T14:41:08;25.40;85.50
64855;DHT22;51321;50.428;8.378;2022-08-27T14:43:30;25.30;85.60
64855;DHT22;51321;50.428;8.378;2022-08-27T14:45:52;25.50;86.10
64855;DHT22;51321;50.428;8.378;2022-08-27T14:48:17;25.60;85.10
64855;DHT22;51321;50.428;8.378;2022-08-27T14:50:40;25.30;85.30
64855;DHT22;51321;50.428;8.378;2022-08-27T14:53:03;25.30;85.80
64855;DHT22;51321;50.428;8.378;2022-08-27T14:55:26;25.40;85.50
64855;DHT22;51321;50.428;8.378;2022-08-27T14:57:47;25.30;85.30
64855;DHT22;51321;50.428;8.378;2022-08-27T15:00:11;25.20;85.70
64855;DHT22;51321;50.428;8.378;2022-08-27T15:02:33;25.00;85.50
64855;DHT22;51321;50.428;8.378;2022-08-27T15:04:55;24.90;86.50
64855;DHT22;51321;50.428;8.378;2022-08-27T15:07:17;24.80;86.80
64855;DHT22;51321;50.428;8.378;2022-08-27T15:09:39;24.70;87.30
64855;DHT22;51321;50.428;8.378;2022-08-27T15:12:03;24.70;87.30
64855;DHT22;51321;50.428;8.378;2022-08-27T15:14:27;24.50;87.60